createdAt,value
2018-11-29T00:00:23.062Z,1027.12
2018-11-29T00:01:52.992Z,1027.10
2018-11-29T00:03:17.119Z,1027.12
2018-11-29T00:04:44.201Z,1027.06
2018-11-29T00:06:11.307Z,1026.99
2018-11-29T00:07:38.241Z,1026.98
2018-11-29T00:09:05.575Z,1026.91
2018-11-29T00:10:32.487Z,1026.89
2018-11-29T00:11:59.598Z,1026.86
2018-11-29T00:13:26.839Z,1026.83
2018-11-29T00:14:54.030Z,1026.88
2018-11-29T00:16:21.158Z,1026.91
2018-11-29T00:17:48.212Z,1026.90
2018-11-29T00:19:15.360Z,1026.92
2018-11-29T00:20:42.260Z,1026.92
2018-11-29T00:22:09.383Z,1026.88
2018-11-29T00:23:36.413Z,1026.86
2018-11-29T00:25:03.499Z,1026.85
2018-11-29T00:26:30.478Z,1026.84
2018-11-29T00:27:57.360Z,1026.81
2018-11-29T00:29:24.629Z,1026.68
2018-11-29T00:30:51.706Z,1026.62
2018-11-29T00:32:19.029Z,1026.64
2018-11-29T00:33:46.067Z,1026.59
2018-11-29T00:35:13.165Z,1026.53
2018-11-29T00:36:40.383Z,1026.40
2018-11-29T00:38:07.499Z,1026.41
2018-11-29T00:39:34.416Z,1026.39
2018-11-29T00:41:01.396Z,1026.31
2018-11-29T00:42:28.651Z,1026.38
2018-11-29T00:43:55.854Z,1026.31
2018-11-29T00:45:23.060Z,1026.34
2018-11-29T00:46:50.032Z,1026.36
2018-11-29T00:48:17.304Z,1026.38
2018-11-29T00:49:44.274Z,1026.37
2018-11-29T00:51:14.435Z,1026.33
2018-11-29T00:52:38.502Z,1026.34
2018-11-29T00:54:05.689Z,1026.36
2018-11-29T00:55:32.653Z,1026.36
2018-11-29T00:56:59.580Z,1026.41
2018-11-29T00:58:26.851Z,1026.41
2018-11-29T00:59:54.116Z,1026.39
2018-11-29T01:01:21.089Z,1026.35
2018-11-29T01:02:48.223Z,1026.30
2018-11-29T01:04:15.249Z,1026.27
2018-11-29T01:05:42.307Z,1026.22
2018-11-29T01:07:09.565Z,1026.19
2018-11-29T01:08:36.728Z,1026.20
2018-11-29T01:10:03.611Z,1026.24
2018-11-29T01:11:30.621Z,1026.30
2018-11-29T01:12:57.851Z,1026.22
2018-11-29T01:14:24.879Z,1026.22
2018-11-29T01:15:52.086Z,1026.21
2018-11-29T01:17:19.022Z,1026.25
2018-11-29T01:18:46.112Z,1026.17
2018-11-29T01:20:13.241Z,1026.17
2018-11-29T01:21:40.281Z,1026.15
2018-11-29T01:23:07.256Z,1026.08
2018-11-29T01:24:34.570Z,1026.06
2018-11-29T01:26:01.645Z,1025.98
2018-11-29T01:27:28.951Z,1025.95
2018-11-29T01:28:55.748Z,1025.96
2018-11-29T01:30:22.917Z,1025.99
2018-11-29T01:31:50.036Z,1025.98
2018-11-29T01:33:17.084Z,1026.00
2018-11-29T01:34:44.062Z,1025.92
2018-11-29T01:36:11.273Z,1025.85
2018-11-29T01:37:38.315Z,1025.87
2018-11-29T01:39:05.470Z,1025.92
2018-11-29T01:40:32.654Z,1025.93
2018-11-29T01:41:59.648Z,1025.95
2018-11-29T01:43:26.768Z,1025.94
2018-11-29T01:44:53.977Z,1025.89
2018-11-29T01:46:20.897Z,1025.89
2018-11-29T01:47:48.039Z,1025.88
2018-11-29T01:49:15.049Z,1025.83
2018-11-29T01:50:42.049Z,1025.84
2018-11-29T01:52:09.327Z,1025.80
2018-11-29T01:53:36.494Z,1025.80
2018-11-29T01:55:03.363Z,1025.76
2018-11-29T01:56:30.572Z,1025.77
2018-11-29T01:57:57.605Z,1025.82
2018-11-29T01:59:24.692Z,1025.80
2018-11-29T02:00:51.782Z,1025.80
2018-11-29T02:02:18.950Z,1025.80
2018-11-29T02:03:46.093Z,1025.82
2018-11-29T02:05:13.015Z,1025.80
2018-11-29T02:06:40.246Z,1025.85
2018-11-29T02:08:07.440Z,1025.85
2018-11-29T02:09:34.438Z,1025.85
2018-11-29T02:11:01.512Z,1025.84
2018-11-29T02:12:28.681Z,1025.86
2018-11-29T02:13:55.696Z,1025.85
2018-11-29T02:15:22.881Z,1025.79
2018-11-29T02:16:49.802Z,1025.78
2018-11-29T02:18:17.001Z,1025.67
2018-11-29T02:19:43.959Z,1025.65
2018-11-29T02:21:11.170Z,1025.60
2018-11-29T02:22:38.147Z,1025.54
2018-11-29T02:24:05.440Z,1025.42
2018-11-29T02:25:32.603Z,1025.37
2018-11-29T02:26:59.594Z,1025.29
2018-11-29T02:28:26.751Z,1025.24
2018-11-29T02:29:53.952Z,1025.20
2018-11-29T02:31:21.096Z,1025.16
2018-11-29T02:32:48.061Z,1025.17
2018-11-29T02:34:15.151Z,1025.16
2018-11-29T02:35:42.170Z,1025.17
2018-11-29T02:37:09.418Z,1025.19
2018-11-29T02:38:36.461Z,1025.19
2018-11-29T02:40:03.599Z,1025.27
2018-11-29T02:41:30.534Z,1025.21
2018-11-29T02:42:57.737Z,1025.22
2018-11-29T02:44:24.853Z,1025.16
2018-11-29T02:45:51.914Z,1025.15
2018-11-29T02:47:19.103Z,1025.19
2018-11-29T02:48:46.117Z,1025.24
2018-11-29T02:50:13.154Z,1025.34
2018-11-29T02:51:40.363Z,1025.39
2018-11-29T02:53:07.312Z,1025.43
2018-11-29T02:54:34.190Z,1025.41
2018-11-29T02:56:01.241Z,1025.39
2018-11-29T02:57:28.471Z,1025.31
2018-11-29T02:58:55.540Z,1025.28
2018-11-29T03:00:22.570Z,1025.25
2018-11-29T03:01:49.764Z,1025.28
2018-11-29T03:03:16.826Z,1025.29
2018-11-29T03:04:44.059Z,1025.32
2018-11-29T03:06:11.096Z,1025.33
2018-11-29T03:07:38.020Z,1025.36
2018-11-29T03:09:05.345Z,1025.35
2018-11-29T03:10:32.525Z,1025.36
2018-11-29T03:11:59.614Z,1025.35
2018-11-29T03:13:26.646Z,1025.23
2018-11-29T03:14:53.975Z,1025.21
2018-11-29T03:16:21.145Z,1025.18
2018-11-29T03:17:51.148Z,1025.18
2018-11-29T03:19:15.246Z,1025.19
2018-11-29T03:20:42.199Z,1025.17
2018-11-29T03:22:09.208Z,1025.14
2018-11-29T03:23:36.038Z,1025.08
2018-11-29T03:25:03.242Z,1025.05
2018-11-29T03:26:30.369Z,1025.09
2018-11-29T03:27:57.565Z,1025.12
2018-11-29T03:29:24.784Z,1025.15
2018-11-29T03:30:51.845Z,1025.16
2018-11-29T03:32:18.701Z,1025.15
2018-11-29T03:33:45.711Z,1025.16
2018-11-29T03:35:12.926Z,1025.17
2018-11-29T03:36:40.160Z,1025.17
2018-11-29T03:38:07.324Z,1025.15
2018-11-29T03:39:34.425Z,1025.14
2018-11-29T03:41:01.745Z,1025.20
2018-11-29T03:42:28.858Z,1025.22
2018-11-29T03:43:55.760Z,1025.17
2018-11-29T03:45:22.830Z,1025.12
2018-11-29T03:46:50.046Z,1025.07
2018-11-29T03:48:17.191Z,1025.01
2018-11-29T03:49:44.367Z,1024.96
2018-11-29T03:51:11.404Z,1024.94
2018-11-29T03:52:38.478Z,1024.88
2018-11-29T03:54:05.811Z,1024.83
2018-11-29T03:55:32.770Z,1024.85
2018-11-29T03:57:00.153Z,1024.86
2018-11-29T03:58:27.092Z,1024.85
2018-11-29T03:59:54.009Z,1024.82
2018-11-29T04:01:21.190Z,1024.80
2018-11-29T04:02:48.171Z,1024.70
2018-11-29T04:04:15.196Z,1024.57
2018-11-29T04:05:42.207Z,1024.57
2018-11-29T04:07:09.244Z,1024.60
2018-11-29T04:08:36.439Z,1024.71
2018-11-29T04:10:03.398Z,1024.74
2018-11-29T04:11:30.535Z,1024.75
2018-11-29T04:12:57.725Z,1024.69
2018-11-29T04:14:24.845Z,1024.65
2018-11-29T04:15:51.848Z,1024.60
2018-11-29T04:17:19.014Z,1024.63
2018-11-29T04:18:45.954Z,1024.69
2018-11-29T04:20:13.069Z,1024.75
2018-11-29T04:21:40.245Z,1024.77
2018-11-29T04:23:07.156Z,1024.82
2018-11-29T04:24:34.343Z,1024.82
2018-11-29T04:26:01.436Z,1024.86
2018-11-29T04:27:28.378Z,1024.83
2018-11-29T04:28:55.504Z,1024.73
2018-11-29T04:30:22.596Z,1024.66
2018-11-29T04:31:49.486Z,1024.61
2018-11-29T04:33:16.520Z,1024.59
2018-11-29T04:34:43.458Z,1024.55
2018-11-29T04:36:10.726Z,1024.56
2018-11-29T04:37:37.939Z,1024.56
2018-11-29T04:39:05.039Z,1024.55
2018-11-29T04:40:32.151Z,1024.52
2018-11-29T04:41:59.532Z,1024.50
2018-11-29T04:43:26.694Z,1024.50
2018-11-29T04:44:53.643Z,1024.47
2018-11-29T04:46:20.764Z,1024.48
2018-11-29T04:47:47.710Z,1024.49
2018-11-29T04:49:14.817Z,1024.46
2018-11-29T04:50:41.798Z,1024.46
2018-11-29T04:52:08.848Z,1024.50
2018-11-29T04:53:35.887Z,1024.56
2018-11-29T04:55:02.687Z,1024.60
2018-11-29T04:56:29.896Z,1024.62
2018-11-29T04:57:57.032Z,1024.64
2018-11-29T04:59:23.990Z,1024.59
2018-11-29T05:00:51.185Z,1024.56
2018-11-29T05:02:18.297Z,1024.60
2018-11-29T05:03:45.397Z,1024.59
2018-11-29T05:05:12.592Z,1024.50
2018-11-29T05:06:39.810Z,1024.53
2018-11-29T05:08:06.865Z,1024.55
2018-11-29T05:09:33.990Z,1024.53
2018-11-29T05:11:01.360Z,1024.55
2018-11-29T05:12:28.371Z,1024.59
2018-11-29T05:15:22.487Z,1024.55
2018-11-29T05:16:49.568Z,1024.51
2018-11-29T05:18:16.907Z,1024.38
2018-11-29T05:19:43.868Z,1024.31
2018-11-29T05:21:11.059Z,1024.24
2018-11-29T05:22:38.010Z,1024.15
2018-11-29T05:24:05.283Z,1024.13
2018-11-29T05:25:35.507Z,1024.08
2018-11-29T05:26:59.767Z,1024.09
2018-11-29T05:28:26.869Z,1024.03
2018-11-29T05:29:54.060Z,1024.06
2018-11-29T05:31:21.175Z,1023.98
2018-11-29T05:32:48.429Z,1023.96
2018-11-29T05:34:15.595Z,1024.01
2018-11-29T05:35:42.719Z,1024.06
2018-11-29T05:37:09.927Z,1024.09
2018-11-29T05:38:37.063Z,1024.07
2018-11-29T05:40:04.026Z,1024.05
2018-11-29T05:41:31.123Z,1024.02
2018-11-29T05:42:58.090Z,1024.04
2018-11-29T05:44:25.128Z,1024.01
2018-11-29T05:45:52.363Z,1024.08
2018-11-29T05:47:19.255Z,1024.06
2018-11-29T05:48:46.436Z,1024.05
2018-11-29T05:50:13.578Z,1024.06
2018-11-29T05:51:43.801Z,1024.05
2018-11-29T05:53:07.703Z,1024.01
2018-11-29T05:54:35.138Z,1024.02
2018-11-29T05:56:02.166Z,1023.94
2018-11-29T05:57:29.436Z,1023.94
2018-11-29T05:58:56.655Z,1023.92
2018-11-29T06:00:23.816Z,1023.92
2018-11-29T06:01:50.912Z,1023.98
2018-11-29T06:03:18.106Z,1023.96
2018-11-29T06:04:45.176Z,1023.96
2018-11-29T06:06:12.357Z,1023.97
2018-11-29T06:07:39.379Z,1023.99
2018-11-29T06:09:06.295Z,1023.95
2018-11-29T06:10:33.366Z,1024.00
2018-11-29T06:12:00.480Z,1023.98
2018-11-29T06:13:27.811Z,1024.01
2018-11-29T06:14:54.559Z,1024.05
2018-11-29T06:16:21.844Z,1024.09
2018-11-29T06:17:48.983Z,1024.09
2018-11-29T06:19:16.217Z,1024.01
2018-11-29T06:20:43.208Z,1023.98
2018-11-29T06:22:10.524Z,1024.01
2018-11-29T06:23:37.783Z,1024.04
2018-11-29T06:25:04.821Z,1024.05
2018-11-29T06:26:32.045Z,1024.03
2018-11-29T06:27:59.171Z,1024.05
2018-11-29T06:29:26.338Z,1023.96
2018-11-29T06:30:53.573Z,1023.98
2018-11-29T06:32:20.841Z,1023.92
2018-11-29T06:33:48.036Z,1023.93
2018-11-29T06:35:15.298Z,1023.93
2018-11-29T06:36:42.473Z,1023.94
2018-11-29T06:38:09.630Z,1023.90
2018-11-29T06:39:36.749Z,1023.91
2018-11-29T06:41:03.945Z,1023.89
2018-11-29T06:42:31.077Z,1023.93
2018-11-29T06:43:58.366Z,1023.93
2018-11-29T06:45:25.629Z,1023.92
2018-11-29T06:46:55.941Z,1023.96
2018-11-29T06:48:20.035Z,1023.98
2018-11-29T06:49:47.218Z,1024.06
2018-11-29T06:51:14.215Z,1024.09
2018-11-29T06:52:41.412Z,1024.10
2018-11-29T06:54:08.469Z,1024.06
2018-11-29T06:55:35.488Z,1024.07
2018-11-29T06:57:02.842Z,1024.09
2018-11-29T06:58:29.929Z,1024.04
2018-11-29T06:59:56.977Z,1023.97
2018-11-29T07:01:24.112Z,1023.95
2018-11-29T07:02:51.189Z,1023.96
2018-11-29T07:04:18.263Z,1023.98
2018-11-29T07:05:45.469Z,1023.99
2018-11-29T07:07:12.609Z,1023.98
2018-11-29T07:08:39.567Z,1024.05
2018-11-29T07:10:06.485Z,1024.00
2018-11-29T07:11:33.371Z,1023.99
2018-11-29T07:13:00.501Z,1023.91
2018-11-29T07:14:27.626Z,1023.95
2018-11-29T07:15:54.768Z,1023.92
2018-11-29T07:17:21.929Z,1023.85
2018-11-29T07:18:48.977Z,1023.80
2018-11-29T07:20:16.139Z,1023.78
2018-11-29T07:21:43.120Z,1023.77
2018-11-29T07:23:10.159Z,1023.78
2018-11-29T07:24:37.292Z,1023.83
2018-11-29T07:26:04.201Z,1023.84
2018-11-29T07:27:31.248Z,1023.86
2018-11-29T07:28:58.363Z,1023.93
2018-11-29T07:30:25.339Z,1023.93
2018-11-29T07:31:52.431Z,1023.91
2018-11-29T07:33:19.518Z,1023.91
2018-11-29T07:34:46.838Z,1023.92
2018-11-29T07:36:13.809Z,1023.86
2018-11-29T07:37:40.817Z,1023.87
2018-11-29T07:39:08.058Z,1023.86
2018-11-29T07:40:35.144Z,1023.88
2018-11-29T07:42:02.371Z,1023.85
2018-11-29T07:43:29.391Z,1023.86
2018-11-29T07:44:56.512Z,1023.84
2018-11-29T07:46:23.804Z,1023.81
2018-11-29T07:47:50.617Z,1023.82
2018-11-29T07:49:17.924Z,1023.79
2018-11-29T07:50:44.861Z,1023.77
2018-11-29T07:52:12.080Z,1023.79
2018-11-29T07:53:39.088Z,1023.79
2018-11-29T07:55:06.137Z,1023.71
2018-11-29T07:56:33.108Z,1023.64
2018-11-29T07:58:00.127Z,1023.61
2018-11-29T07:59:27.071Z,1023.56
2018-11-29T08:00:54.413Z,1023.60
2018-11-29T08:02:21.493Z,1023.61
2018-11-29T08:03:48.647Z,1023.62
2018-11-29T08:05:15.846Z,1023.55
2018-11-29T08:06:42.950Z,1023.49
2018-11-29T08:08:10.186Z,1023.41
2018-11-29T08:09:37.209Z,1023.38
2018-11-29T08:11:04.385Z,1023.38
2018-11-29T08:12:34.655Z,1023.39
2018-11-29T08:13:58.837Z,1023.41
2018-11-29T08:15:25.754Z,1023.38
2018-11-29T08:16:53.008Z,1023.40
2018-11-29T08:18:20.444Z,1023.45
2018-11-29T08:19:47.536Z,1023.46
2018-11-29T08:21:14.652Z,1023.48
2018-11-29T08:22:41.988Z,1023.45
2018-11-29T08:24:09.034Z,1023.48
2018-11-29T08:25:36.118Z,1023.50
2018-11-29T08:27:03.263Z,1023.48
2018-11-29T08:28:30.381Z,1023.46
2018-11-29T08:29:57.494Z,1023.45
2018-11-29T08:31:24.520Z,1023.43
2018-11-29T08:32:51.497Z,1023.44
2018-11-29T08:34:18.567Z,1023.39
2018-11-29T08:35:45.655Z,1023.37
2018-11-29T08:37:12.894Z,1023.30
2018-11-29T08:38:39.997Z,1023.27
2018-11-29T08:40:07.238Z,1023.34
2018-11-29T08:41:34.524Z,1023.30
2018-11-29T08:43:01.728Z,1023.28
2018-11-29T08:44:28.723Z,1023.26
2018-11-29T08:45:55.720Z,1023.26
2018-11-29T08:47:22.862Z,1023.25
2018-11-29T08:48:49.959Z,1023.31
2018-11-29T08:50:16.968Z,1023.28
2018-11-29T08:51:44.256Z,1023.30
2018-11-29T08:53:11.270Z,1023.33
2018-11-29T08:54:38.511Z,1023.32
2018-11-29T08:56:05.685Z,1023.31
2018-11-29T08:57:32.565Z,1023.28
2018-11-29T08:58:59.556Z,1023.27
2018-11-29T09:00:26.414Z,1023.30
2018-11-29T09:01:53.602Z,1023.28
2018-11-29T09:03:20.713Z,1023.26
2018-11-29T09:04:47.825Z,1023.20
2018-11-29T09:06:14.913Z,1023.21
2018-11-29T09:07:42.016Z,1023.14
2018-11-29T09:09:09.069Z,1023.16
2018-11-29T09:10:36.270Z,1023.18
2018-11-29T09:12:03.393Z,1023.17
2018-11-29T09:13:30.239Z,1023.19
2018-11-29T09:14:57.450Z,1023.18
2018-11-29T09:16:24.483Z,1023.21
2018-11-29T09:17:51.680Z,1023.24
2018-11-29T09:19:18.510Z,1023.22
2018-11-29T09:20:45.842Z,1023.21
2018-11-29T09:22:12.858Z,1023.21
2018-11-29T09:23:39.984Z,1023.24
2018-11-29T09:25:07.191Z,1023.22
2018-11-29T09:26:34.083Z,1023.21
2018-11-29T09:28:01.487Z,1023.23
2018-11-29T09:29:28.734Z,1023.21
2018-11-29T09:30:55.915Z,1023.18
2018-11-29T09:32:22.849Z,1023.16
2018-11-29T09:33:50.212Z,1023.15
2018-11-29T09:35:17.278Z,1023.15
2018-11-29T09:36:44.197Z,1023.12
2018-11-29T09:38:11.385Z,1023.06
2018-11-29T09:39:38.574Z,1023.06
2018-11-29T09:41:05.812Z,1023.07
2018-11-29T09:42:32.713Z,1022.99
2018-11-29T09:43:59.806Z,1022.99
2018-11-29T09:45:26.804Z,1022.94
2018-11-29T09:46:53.968Z,1022.91
2018-11-29T09:48:21.017Z,1022.89
2018-11-29T09:49:48.290Z,1022.85
2018-11-29T09:51:15.224Z,1022.83
2018-11-29T09:52:42.709Z,1022.89
2018-11-29T09:54:09.810Z,1022.92
2018-11-29T09:55:36.786Z,1022.92
2018-11-29T09:57:04.097Z,1022.85
2018-11-29T09:58:31.032Z,1022.81
2018-11-29T09:59:58.521Z,1022.78
2018-11-29T10:01:25.522Z,1022.74
2018-11-29T10:02:52.874Z,1022.72
2018-11-29T10:04:19.872Z,1022.66
2018-11-29T10:05:46.902Z,1022.62
2018-11-29T10:07:14.030Z,1022.60
2018-11-29T10:08:41.006Z,1022.55
2018-11-29T10:10:08.105Z,1022.53
2018-11-29T10:11:35.360Z,1022.48
2018-11-29T10:13:02.540Z,1022.47
2018-11-29T10:14:29.775Z,1022.44
2018-11-29T10:15:56.988Z,1022.39
2018-11-29T10:17:24.181Z,1022.40
2018-11-29T10:18:51.180Z,1022.33
2018-11-29T10:20:18.314Z,1022.31
2018-11-29T10:21:45.447Z,1022.25
2018-11-29T10:23:12.652Z,1022.25
2018-11-29T10:24:39.820Z,1022.20
2018-11-29T10:26:06.817Z,1022.18
2018-11-29T10:27:33.977Z,1022.14
2018-11-29T10:29:01.230Z,1022.13
2018-11-29T10:30:28.367Z,1022.13
2018-11-29T10:31:55.669Z,1022.11
2018-11-29T10:33:22.670Z,1022.12
2018-11-29T10:34:49.892Z,1022.13
2018-11-29T10:36:16.983Z,1022.13
2018-11-29T10:37:47.010Z,1022.18
2018-11-29T10:39:11.009Z,1022.21
2018-11-29T10:40:38.161Z,1022.18
2018-11-29T10:42:05.246Z,1022.18
2018-11-29T10:43:32.330Z,1022.20
2018-11-29T10:44:59.486Z,1022.16
2018-11-29T10:46:26.669Z,1022.13
2018-11-29T10:47:53.832Z,1022.13
2018-11-29T10:49:21.057Z,1022.06
2018-11-29T10:50:48.316Z,1022.07
2018-11-29T10:52:15.543Z,1022.12
2018-11-29T10:53:42.763Z,1022.12
2018-11-29T10:55:09.948Z,1022.11
2018-11-29T10:56:37.027Z,1022.08
2018-11-29T10:58:04.076Z,1022.11
2018-11-29T10:59:31.277Z,1022.11
2018-11-29T11:00:58.448Z,1022.09
2018-11-29T11:02:25.297Z,1022.07
2018-11-29T11:03:52.506Z,1022.03
2018-11-29T11:05:19.707Z,1021.99
2018-11-29T11:06:46.852Z,1022.00
2018-11-29T11:08:14.045Z,1021.92
2018-11-29T11:09:41.123Z,1021.90
2018-11-29T11:11:08.229Z,1021.86
2018-11-29T11:12:35.471Z,1021.85
2018-11-29T11:14:02.734Z,1021.83
2018-11-29T11:15:29.904Z,1021.81
2018-11-29T11:16:57.147Z,1021.80
2018-11-29T11:18:24.353Z,1021.80
2018-11-29T11:19:51.558Z,1021.79
2018-11-29T11:21:18.719Z,1021.76
2018-11-29T11:22:45.817Z,1021.77
2018-11-29T11:24:13.020Z,1021.78
2018-11-29T11:25:40.092Z,1021.79
2018-11-29T11:27:07.243Z,1021.77
2018-11-29T11:28:34.295Z,1021.77
2018-11-29T11:30:01.500Z,1021.75
2018-11-29T11:31:31.116Z,1021.74
2018-11-29T11:32:56.145Z,1021.76
2018-11-29T11:34:23.420Z,1021.77
2018-11-29T11:35:50.595Z,1021.76
2018-11-29T11:37:17.655Z,1021.70
2018-11-29T11:38:44.731Z,1021.75
2018-11-29T11:40:12.166Z,1021.73
2018-11-29T11:41:39.465Z,1021.68
2018-11-29T11:43:06.742Z,1021.68
2018-11-29T11:44:33.883Z,1021.66
2018-11-29T11:46:01.072Z,1021.64
2018-11-29T11:47:28.414Z,1021.64
2018-11-29T11:48:55.623Z,1021.58
2018-11-29T11:50:22.653Z,1021.59
2018-11-29T11:51:49.907Z,1021.60
2018-11-29T11:53:17.063Z,1021.62
2018-11-29T11:54:44.099Z,1021.62
2018-11-29T11:56:11.400Z,1021.63
2018-11-29T11:57:38.608Z,1021.62
2018-11-29T11:59:05.675Z,1021.64
2018-11-29T12:00:32.786Z,1021.60
2018-11-29T12:01:59.952Z,1021.53
2018-11-29T12:03:27.131Z,1021.51
2018-11-29T12:04:54.374Z,1021.51
2018-11-29T12:06:21.581Z,1021.52
2018-11-29T12:07:48.693Z,1021.48
2018-11-29T12:09:15.706Z,1021.45
2018-11-29T12:10:43.049Z,1021.38
2018-11-29T12:12:10.218Z,1021.38
2018-11-29T12:13:37.417Z,1021.39
2018-11-29T12:15:04.553Z,1021.33
2018-11-29T12:16:31.614Z,1021.22
2018-11-29T12:17:58.759Z,1021.16
2018-11-29T12:19:26.044Z,1021.16
2018-11-29T12:20:53.260Z,1021.14
2018-11-29T12:22:20.396Z,1021.15
2018-11-29T12:23:47.763Z,1021.11
2018-11-29T12:25:14.793Z,1021.09
2018-11-29T12:26:41.827Z,1021.07
2018-11-29T12:28:09.113Z,1021.07
2018-11-29T12:29:36.458Z,1021.10
2018-11-29T12:31:03.745Z,1021.06
2018-11-29T12:32:30.991Z,1021.04
2018-11-29T12:33:58.065Z,1021.04
2018-11-29T12:35:24.901Z,1021.06
2018-11-29T12:36:52.097Z,1021.07
2018-11-29T12:38:19.180Z,1021.13
2018-11-29T12:39:46.568Z,1021.18
2018-11-29T12:41:13.822Z,1021.20
2018-11-29T12:42:41.060Z,1021.21
2018-11-29T12:44:08.372Z,1021.18
2018-11-29T12:45:35.294Z,1021.19
2018-11-29T12:47:02.424Z,1021.15
2018-11-29T12:48:29.660Z,1021.13
2018-11-29T12:49:56.601Z,1021.13
2018-11-29T12:51:23.756Z,1021.12
2018-11-29T12:52:51.008Z,1021.09
2018-11-29T12:54:18.275Z,1021.02
2018-11-29T12:55:45.613Z,1020.98
2018-11-29T12:57:12.774Z,1020.97
2018-11-29T12:58:39.958Z,1020.94
2018-11-29T13:00:07.072Z,1020.92
2018-11-29T13:01:34.198Z,1020.90
2018-11-29T13:03:01.337Z,1020.88
2018-11-29T13:04:28.531Z,1020.87
2018-11-29T13:05:55.768Z,1020.89
2018-11-29T13:07:23.052Z,1020.91
2018-11-29T13:08:50.289Z,1020.89
2018-11-29T13:10:17.292Z,1020.87
2018-11-29T13:11:44.506Z,1020.85
2018-11-29T13:13:11.655Z,1020.85
2018-11-29T13:14:38.902Z,1020.85
2018-11-29T13:16:06.009Z,1020.83
2018-11-29T13:17:33.085Z,1020.88
2018-11-29T13:19:00.325Z,1020.83
2018-11-29T13:20:32.256Z,1020.83
2018-11-29T13:21:54.683Z,1020.79
2018-11-29T13:23:22.027Z,1020.82
2018-11-29T13:24:49.271Z,1020.83
2018-11-29T13:26:16.554Z,1020.81
2018-11-29T13:27:43.695Z,1020.78
2018-11-29T13:29:10.779Z,1020.78
2018-11-29T13:30:38.221Z,1020.76
2018-11-29T13:32:05.339Z,1020.73
2018-11-29T13:33:33.012Z,1020.75
2018-11-29T13:34:59.964Z,1020.72
2018-11-29T13:36:27.180Z,1020.73
2018-11-29T13:37:54.386Z,1020.75
2018-11-29T13:39:21.631Z,1020.78
2018-11-29T13:40:48.942Z,1020.77
2018-11-29T13:42:16.122Z,1020.79
2018-11-29T13:43:43.295Z,1020.76
2018-11-29T13:45:10.549Z,1020.78
2018-11-29T13:46:37.710Z,1020.77
2018-11-29T13:48:05.021Z,1020.79
2018-11-29T13:49:35.141Z,1020.78
2018-11-29T13:50:59.171Z,1020.77
2018-11-29T13:52:25.941Z,1020.75
2018-11-29T13:53:52.912Z,1020.74
2018-11-29T13:55:19.905Z,1020.73
2018-11-29T13:56:46.726Z,1020.68
2018-11-29T13:58:13.839Z,1020.67
2018-11-29T13:59:40.733Z,1020.72
2018-11-29T14:01:07.980Z,1020.77
2018-11-29T14:02:34.985Z,1020.76
2018-11-29T14:04:02.123Z,1020.74
2018-11-29T14:05:29.202Z,1020.73
2018-11-29T14:06:56.063Z,1020.70
2018-11-29T14:08:23.128Z,1020.66
2018-11-29T14:09:50.115Z,1020.67
2018-11-29T14:11:17.109Z,1020.73
2018-11-29T14:12:44.168Z,1020.71
2018-11-29T14:14:11.001Z,1020.68
2018-11-29T14:15:38.083Z,1020.64
2018-11-29T14:17:05.107Z,1020.69
2018-11-29T14:18:32.307Z,1020.73
2018-11-29T14:19:59.562Z,1020.72
2018-11-29T14:21:26.485Z,1020.74
2018-11-29T14:22:53.508Z,1020.74
2018-11-29T14:24:20.668Z,1020.74
2018-11-29T14:25:47.898Z,1020.78
2018-11-29T14:27:15.000Z,1020.78
2018-11-29T14:28:42.052Z,1020.72
2018-11-29T14:30:09.099Z,1020.72
2018-11-29T14:31:36.204Z,1020.67
2018-11-29T14:33:03.335Z,1020.67
2018-11-29T14:34:30.410Z,1020.69
2018-11-29T14:35:57.507Z,1020.72
2018-11-29T14:37:24.614Z,1020.74
2018-11-29T14:38:51.798Z,1020.73
2018-11-29T14:40:18.792Z,1020.71
2018-11-29T14:41:45.879Z,1020.71
2018-11-29T14:43:13.074Z,1020.69
2018-11-29T14:44:39.848Z,1020.67
2018-11-29T14:46:06.718Z,1020.68
2018-11-29T14:47:33.984Z,1020.71
2018-11-29T14:49:00.981Z,1020.69
2018-11-29T14:50:27.875Z,1020.70
2018-11-29T14:51:55.117Z,1020.74
2018-11-29T14:53:22.258Z,1020.73
2018-11-29T14:54:49.092Z,1020.73
2018-11-29T14:56:16.257Z,1020.69
2018-11-29T14:57:43.040Z,1020.68
2018-11-29T14:59:10.336Z,1020.69
2018-11-29T15:00:37.669Z,1020.68
2018-11-29T15:02:04.747Z,1020.71
2018-11-29T15:03:31.786Z,1020.72
2018-11-29T15:04:59.156Z,1020.69
2018-11-29T15:06:25.882Z,1020.62
2018-11-29T15:07:53.175Z,1020.59
2018-11-29T15:09:20.376Z,1020.62
2018-11-29T15:10:47.205Z,1020.66
2018-11-29T15:12:14.474Z,1020.60
2018-11-29T15:13:41.591Z,1020.55
2018-11-29T15:15:08.802Z,1020.49
2018-11-29T15:16:35.678Z,1020.47
2018-11-29T15:18:02.705Z,1020.42
2018-11-29T15:19:29.782Z,1020.42
2018-11-29T15:20:57.082Z,1020.37
2018-11-29T15:22:24.225Z,1020.32
2018-11-29T15:23:51.473Z,1020.29
2018-11-29T15:25:18.448Z,1020.20
2018-11-29T15:26:45.642Z,1020.06
2018-11-29T15:28:12.765Z,1019.95
2018-11-29T15:29:39.704Z,1019.83
2018-11-29T15:31:06.583Z,1019.81
2018-11-29T15:32:33.943Z,1019.84
2018-11-29T15:34:00.886Z,1019.90
2018-11-29T15:35:27.904Z,1019.90
2018-11-29T15:36:54.991Z,1019.90
2018-11-29T15:38:21.986Z,1019.89
2018-11-29T15:39:49.193Z,1019.98
2018-11-29T15:41:18.155Z,1019.98
2018-11-29T15:42:43.434Z,1020.00
2018-11-29T15:44:10.376Z,1020.04
2018-11-29T15:45:37.381Z,1019.96
2018-11-29T15:47:04.582Z,1019.90
2018-11-29T15:48:31.690Z,1019.81
2018-11-29T15:49:58.745Z,1019.80
2018-11-29T15:51:25.910Z,1019.77
2018-11-29T15:52:55.870Z,1019.77
2018-11-29T15:54:20.054Z,1019.66
2018-11-29T15:55:47.243Z,1019.70
2018-11-29T15:57:14.267Z,1019.67
2018-11-29T15:58:41.451Z,1019.70
2018-11-29T16:00:08.404Z,1019.71
2018-11-29T16:01:35.447Z,1019.76
2018-11-29T16:03:02.769Z,1019.78
2018-11-29T16:04:29.863Z,1019.80
2018-11-29T16:05:56.910Z,1019.80
2018-11-29T16:07:24.158Z,1019.83
2018-11-29T16:08:51.226Z,1019.79
2018-11-29T16:10:18.430Z,1019.74
2018-11-29T16:11:45.651Z,1019.69
2018-11-29T16:13:12.890Z,1019.70
2018-11-29T16:14:43.407Z,1019.71
2018-11-29T16:16:07.166Z,1019.73
2018-11-29T16:17:34.010Z,1019.74
2018-11-29T16:19:03.771Z,1019.72
2018-11-29T16:20:28.237Z,1019.75
2018-11-29T16:21:55.124Z,1019.81
2018-11-29T16:23:22.421Z,1019.87
2018-11-29T16:24:49.562Z,1019.84
2018-11-29T16:26:16.858Z,1019.76
2018-11-29T16:27:44.011Z,1019.75
2018-11-29T16:29:11.305Z,1019.74
2018-11-29T16:30:38.324Z,1019.71
2018-11-29T16:32:05.403Z,1019.67
2018-11-29T16:33:32.623Z,1019.63
2018-11-29T16:34:59.407Z,1019.58
2018-11-29T16:36:26.631Z,1019.58
2018-11-29T16:37:53.883Z,1019.59
2018-11-29T16:39:20.699Z,1019.52
2018-11-29T16:40:47.913Z,1019.54
2018-11-29T16:42:15.164Z,1019.60
2018-11-29T16:43:42.264Z,1019.62
2018-11-29T16:45:09.455Z,1019.62
2018-11-29T16:46:36.599Z,1019.61
2018-11-29T16:48:03.780Z,1019.65
2018-11-29T16:49:30.943Z,1019.61
2018-11-29T16:50:58.226Z,1019.60
2018-11-29T16:52:25.436Z,1019.56
2018-11-29T16:53:52.631Z,1019.53
2018-11-29T16:55:19.896Z,1019.50
2018-11-29T16:56:47.079Z,1019.49
2018-11-29T16:58:14.248Z,1019.42
2018-11-29T16:59:41.152Z,1019.35
2018-11-29T17:01:08.914Z,1019.32
2018-11-29T17:02:35.425Z,1019.30
2018-11-29T17:04:02.775Z,1019.33
2018-11-29T17:05:29.846Z,1019.35
2018-11-29T17:06:56.952Z,1019.36
2018-11-29T17:08:24.321Z,1019.35
2018-11-29T17:09:51.456Z,1019.36
2018-11-29T17:11:18.707Z,1019.35
2018-11-29T17:12:46.048Z,1019.33
2018-11-29T17:14:13.322Z,1019.31
2018-11-29T17:15:40.293Z,1019.27
2018-11-29T17:17:07.404Z,1019.22
2018-11-29T17:18:34.629Z,1019.22
2018-11-29T17:20:01.734Z,1019.27
2018-11-29T17:21:28.875Z,1019.28
2018-11-29T17:22:56.136Z,1019.28
2018-11-29T17:24:23.084Z,1019.25
2018-11-29T17:25:49.947Z,1019.24
2018-11-29T17:27:17.116Z,1019.21
2018-11-29T17:28:44.189Z,1019.16
2018-11-29T17:30:11.292Z,1019.17
2018-11-29T17:31:38.395Z,1019.18
2018-11-29T17:33:05.637Z,1019.20
2018-11-29T17:34:32.708Z,1019.23